Time;durP1;ratioP1;P1;durP2;ratioP2;P2;SDS_P1;SDS_P2;PMS_P1;PMS_P2;Temp;Humidity;BMP_temperature;BMP_pressure;BME280_temperature;BME280_humidity;BME280_pressure;Samples;Min_cycle;Max_cycle;Signal;HPM_P1;HPM_P2
2022/10/11 00:00:08;;;;;;;11.12;4.60;;;;;;;5.08;88.52;98755.67;1777678;79;21436;-58
2022/10/11 00:02:35;;;;;;;7.35;4.40;;;;;;;5.07;88.52;98754.86;1776595;79;21408;-58
2022/10/11 00:05:02;;;;;;;9.18;4.87;;;;;;;5.09;88.60;98754.61;1782899;79;21160;-58
2022/10/11 00:07:28;;;;;;;8.58;4.65;;;;;;;5.11;88.58;98742.71;1776547;79;21133;-58
2022/10/11 00:09:56;;;;;;;6.25;4.30;;;;;;;5.12;88.44;98747.52;1796702;79;20916;-58
2022/10/11 00:12:23;;;;;;;7.65;4.85;;;;;;;5.09;88.42;98743.48;1794229;79;21071;-58
2022/10/11 00:14:49;;;;;;;8.83;4.55;;;;;;;5.10;88.41;98743.77;1803935;79;20952;-58
2022/10/11 00:17:16;;;;;;;6.50;4.37;;;;;;;5.10;88.36;98731.02;1776659;79;21430;-58
2022/10/11 00:19:44;;;;;;;8.83;4.40;;;;;;;5.08;88.34;98735.24;1785537;79;21406;-57
2022/10/11 00:22:11;;;;;;;6.85;4.50;;;;;;;5.07;88.39;98733.62;1804340;79;20911;-58
2022/10/11 00:24:37;;;;;;;7.70;4.35;;;;;;;5.04;88.43;98733.30;1791434;79;21012;-58
2022/10/11 00:27:04;;;;;;;5.40;4.20;;;;;;;5.02;88.52;98727.39;1795303;79;20840;-58
2022/10/11 00:29:31;;;;;;;21.50;4.97;;;;;;;5.02;88.55;98724.22;1804360;79;21106;-58
2022/10/11 00:31:57;;;;;;;5.58;3.83;;;;;;;5.01;88.56;98723.95;1786137;79;21047;-58
2022/10/11 00:34:24;;;;;;;8.50;4.42;;;;;;;5.00;88.62;98727.64;1781601;79;21379;-58
2022/10/11 00:36:51;;;;;;;5.45;3.65;;;;;;;5.01;88.68;98726.61;1786240;79;20967;-58
2022/10/11 00:39:17;;;;;;;6.55;4.25;;;;;;;5.02;88.76;98723.41;1791510;79;21040;-58
2022/10/11 00:41:46;;;;;;;5.58;4.00;;;;;;;5.05;88.72;98721.10;1795031;79;21105;-58
2022/10/11 00:44:20;;;;;;;6.17;3.95;;;;;;;5.07;88.65;98716.88;1784331;78;20950;-58
2022/10/11 00:47:06;;;;;;;7.92;4.22;;;;;;;5.07;88.57;98715.03;1795238;79;20885;-59
2022/10/11 00:49:37;;;;;;;7.87;4.45;;;;;;;5.04;88.51;98710.19;1791670;79;20943;-58
2022/10/11 00:52:30;;;;;;;6.37;3.70;;;;;;;5.01;88.49;98705.88;1797838;79;20845;-58
2022/10/11 00:55:00;;;;;;;6.65;3.52;;;;;;;5.01;88.43;98705.37;1780201;78;21254;-58
2022/10/11 00:57:28;;;;;;;8.85;4.03;;;;;;;5.03;88.34;98698.48;1786973;79;21641;-59
2022/10/11 00:59:55;;;;;;;9.18;3.77;;;;;;;5.04;88.28;98700.89;1799550;79;21475;-58
2022/10/11 01:02:22;;;;;;;9.98;3.67;;;;;;;5.07;88.26;98696.44;1794378;79;20944;-58
2022/10/11 01:04:50;;;;;;;5.85;3.77;;;;;;;5.08;88.11;98699.39;1782709;79;20856;-59
2022/10/11 01:07:19;;;;;;;8.05;4.03;;;;;;;5.08;87.90;98695.41;1785445;79;20963;-58
2022/10/11 01:09:46;;;;;;;6.05;4.03;;;;;;;5.05;87.88;98685.26;1780620;79;21595;-58
2022/10/11 01:12:17;;;;;;;7.12;3.98;;;;;;;5.05;87.74;98692.41;1791581;79;20915;-59
2022/10/11 01:15:16;;;;;;;5.72;3.65;;;;;;;5.03;87.66;98687.86;1796945;78;20976;-58
2022/10/11 01:18:01;;;;;;;5.17;3.62;;;;;;;4.99;87.63;98689.39;1798330;79;21009;-59
2022/10/11 01:20:42;;;;;;;8.83;3.85;;;;;;;4.97;87.54;98682.97;1782753;79;21243;-58
2022/10/11 01:23:42;;;;;;;5.17;3.50;;;;;;;4.94;87.55;98683.47;1780344;79;20896;-59
2022/10/11 01:26:44;;;;;;;6.83;3.40;;;;;;;4.92;87.46;98682.91;1785607;79;21093;-58
2022/10/11 01:29:39;;;;;;;6.50;3.60;;;;;;;4.90;87.37;98682.31;1806850;79;21398;-58
2022/10/11 01:32:17;;;;;;;5.30;3.55;;;;;;;4.87;87.36;98678.82;1788929;78;21094;-58
2022/10/11 01:35:30;;;;;;;10.40;3.65;;;;;;;4.87;87.44;98677.49;1797834;79;21181;-58
2022/10/11 01:38:30;;;;;;;7.75;3.52;;;;;;;4.89;87.42;98674.08;1798658;79;20938;-58
2022/10/11 01:41:05;;;;;;;7.60;3.65;;;;;;;4.90;87.39;98678.33;1791593;79;21031;-58
2022/10/11 01:43:32;;;;;;;4.53;3.40;;;;;;;4.90;87.38;98669.03;1793574;79;21719;-58
2022/10/11 01:45:59;;;;;;;5.15;3.55;;;;;;;4.90;87.28;98669.03;1801609;79;20896;-58
2022/10/11 01:48:25;;;;;;;5.12;3.60;;;;;;;4.87;87.24;98662.08;1783058;79;21128;-58
2022/10/11 01:50:57;;;;;;;6.78;3.50;;;;;;;4.82;87.21;98664.12;1785419;79;21430;-58
2022/10/11 01:53:41;;;;;;;5.65;3.08;;;;;;;4.79;87.31;98664.59;1785338;79;20915;-58
2022/10/11 01:56:32;;;;;;;5.28;3.33;;;;;;;4.78;87.44;98661.66;1720866;79;21520;-58
2022/10/11 01:59:10;;;;;;;8.25;3.40;;;;;;;4.77;87.46;98661.37;1799403;79;20984;-58
2022/10/11 02:02:19;;;;;;;6.45;3.72;;;;;;;4.78;87.51;98653.70;1803170;79;21904;-58
2022/10/11 02:04:57;;;;;;;5.72;3.62;;;;;;;4.80;87.48;98656.38;1795774;79;20990;-57
2022/10/11 02:07:50;;;;;;;5.75;3.17;;;;;;;4.78;87.42;98657.14;1789518;79;20860;-58
2022/10/11 02:10:31;;;;;;;5.03;3.52;;;;;;;4.76;87.39;98655.76;1797704;78;20939;-59
2022/10/11 02:13:19;;;;;;;4.92;3.00;;;;;;;4.73;87.35;98654.93;1803878;79;21399;-59
2022/10/11 02:15:46;;;;;;;6.05;2.85;;;;;;;4.73;87.43;98654.38;1782699;79;22137;-59
2022/10/11 02:18:18;;;;;;;5.65;3.30;;;;;;;4.72;87.45;98646.16;1778632;79;21438;-59
2022/10/11 02:20:45;;;;;;;5.00;3.20;;;;;;;4.73;87.48;98644.31;1794440;79;20915;-59
2022/10/11 02:23:22;;;;;;;5.92;3.08;;;;;;;4.71;87.39;98646.41;1788843;79;21027;-59
2022/10/11 02:25:48;;;;;;;4.83;3.22;;;;;;;4.70;87.30;98647.43;1766935;78;20971;-59
2022/10/11 02:28:22;;;;;;;6.53;3.25;;;;;;;4.67;87.33;98649.22;1786836;79;21865;-59
2022/10/11 02:30:49;;;;;;;5.55;3.00;;;;;;;4.65;87.32;98647.33;1784325;79;20883;-59
2022/10/11 02:33:20;;;;;;;6.75;3.20;;;;;;;4.63;87.32;98644.11;1791799;79;20919;-59
2022/10/11 02:35:52;;;;;;;6.42;3.02;;;;;;;4.61;87.35;98636.40;1797817;79;20990;-58
2022/10/11 02:38:30;;;;;;;5.30;3.08;;;;;;;4.59;87.46;98640.33;1785604;79;21465;-58
2022/10/11 02:41:20;;;;;;;8.05;3.20;;;;;;;4.59;87.50;98641.66;1786266;79;21147;-58
2022/10/11 02:43:56;;;;;;;8.05;2.95;;;;;;;4.59;87.55;98636.34;1708647;82;21155;-58
2022/10/11 02:46:23;;;;;;;6.03;2.70;;;;;;;4.56;87.51;98643.44;1763495;79;21718;-61
2022/10/11 02:48:49;;;;;;;4.97;2.95;;;;;;;4.53;87.50;98638.59;1767565;79;20932;-59
2022/10/11 02:51:16;;;;;;;5.47;3.10;;;;;;;4.48;87.60;98649.10;1795647;79;21080;-59
2022/10/11 02:53:43;;;;;;;8.55;2.85;;;;;;;4.44;87.81;98644.80;1750577;79;21111;-60
2022/10/11 02:56:09;;;;;;;5.12;3.40;;;;;;;4.45;88.00;98646.40;1776522;79;21450;-59
2022/10/11 02:58:36;;;;;;;5.37;3.12;;;;;;;4.48;87.99;98646.45;1799104;79;20896;-61
2022/10/11 03:01:03;;;;;;;5.62;3.67;;;;;;;4.50;88.00;98649.70;1784066;79;20996;-60
2022/10/11 03:03:30;;;;;;;6.03;3.77;;;;;;;4.50;87.99;98652.36;1785548;79;20911;-57
2022/10/11 03:05:59;;;;;;;5.22;3.22;;;;;;;4.49;87.91;98656.84;1798069;79;21057;-57
2022/10/11 03:08:26;;;;;;;4.42;2.95;;;;;;;4.45;87.90;98660.20;1791379;79;21110;-57
2022/10/11 03:10:52;;;;;;;5.75;3.00;;;;;;;4.44;88.02;98660.72;1791537;79;21513;-58
2022/10/11 03:13:20;;;;;;;4.92;2.80;;;;;;;4.43;88.05;98655.66;1797889;79;20984;-58
2022/10/11 03:15:49;;;;;;;5.65;2.85;;;;;;;4.42;88.15;98658.02;1785577;79;20875;-58
2022/10/11 03:18:15;;;;;;;5.72;3.08;;;;;;;4.41;88.15;98659.05;1798483;79;21228;-58
2022/10/11 03:20:44;;;;;;;7.62;3.20;;;;;;;4.42;88.24;98658.83;1795515;79;20919;-58
2022/10/11 03:23:11;;;;;;;6.42;3.12;;;;;;;4.45;88.25;98660.98;1785488;79;20907;-58
2022/10/11 03:25:38;;;;;;;4.42;2.77;;;;;;;4.41;88.28;98657.72;1788552;79;21442;-58
2022/10/11 03:28:04;;;;;;;6.42;3.10;;;;;;;4.33;88.32;98657.58;1785686;79;20903;-58
2022/10/11 03:30:31;;;;;;;7.00;3.15;;;;;;;4.30;88.51;98654.58;1795842;79;22162;-58
2022/10/11 03:32:58;;;;;;;4.62;3.12;;;;;;;4.26;88.60;98652.93;1805673;79;20932;-58
2022/10/11 03:35:24;;;;;;;7.75;3.90;;;;;;;4.24;88.72;98652.87;1803211;79;21814;-58
2022/10/11 03:37:51;;;;;;;8.28;3.58;;;;;;;4.20;88.67;98641.09;1794418;79;20924;-58
2022/10/11 03:40:17;;;;;;;6.33;3.55;;;;;;;4.16;88.77;98644.75;1791704;79;20975;-58
2022/10/11 03:42:44;;;;;;;7.22;3.77;;;;;;;4.08;88.88;98649.89;1794176;79;21246;-58
2022/10/11 03:45:11;;;;;;;5.72;3.15;;;;;;;4.02;89.23;98650.83;1786074;79;20949;-58
2022/10/11 03:47:38;;;;;;;6.45;3.02;;;;;;;3.98;89.49;98649.66;1791700;79;20887;-58
2022/10/11 03:50:07;;;;;;;4.80;3.00;;;;;;;3.98;89.77;98641.70;1794282;78;20896;-58
2022/10/11 03:52:34;;;;;;;9.10;2.95;;;;;;;4.05;90.02;98645.04;1789202;79;20952;-58
2022/10/11 03:55:00;;;;;;;4.95;3.20;;;;;;;4.10;90.15;98646.48;1782813;79;21057;-58
2022/10/11 03:57:27;;;;;;;6.25;3.05;;;;;;;4.17;90.05;98644.23;1776553;79;21018;-58
2022/10/11 03:59:54;;;;;;;9.45;3.08;;;;;;;4.19;89.97;98643.48;1788921;79;20848;-58
2022/10/11 04:02:20;;;;;;;4.97;2.98;;;;;;;4.18;89.94;98639.20;1796964;79;20943;-58
2022/10/11 04:04:51;;;;;;;4.55;2.90;;;;;;;4.19;89.94;98648.27;1803171;79;21026;-58
2022/10/11 04:07:18;;;;;;;7.37;3.05;;;;;;;4.19;89.92;98644.30;1808344;78;21241;-58
2022/10/11 04:09:44;;;;;;;5.92;2.75;;;;;;;4.21;89.91;98640.08;1779034;79;20982;-58
2022/10/11 04:12:11;;;;;;;4.65;2.92;;;;;;;4.21;89.90;98639.56;1785658;79;21457;-58
2022/10/11 04:14:39;;;;;;;4.87;2.95;;;;;;;4.21;89.93;98645.37;1796227;79;20948;-58
2022/10/11 04:17:06;;;;;;;5.75;2.58;;;;;;;4.22;89.89;98642.48;1789253;79;21012;-58
2022/10/11 04:19:36;;;;;;;3.90;2.60;;;;;;;4.21;89.85;98640.88;1782829;79;21658;-58
2022/10/11 04:22:04;;;;;;;10.20;2.80;;;;;;;4.21;89.85;98648.03;1785331;79;20873;-58
2022/10/11 04:24:32;;;;;;;5.30;2.95;;;;;;;4.19;89.72;98646.13;1800231;79;20872;-58
2022/10/11 04:26:59;;;;;;;3.95;2.77;;;;;;;4.16;89.89;98644.75;1786427;79;21066;-58
2022/10/11 04:29:25;;;;;;;4.00;3.00;;;;;;;4.17;89.90;98644.23;1785480;79;20888;-58
2022/10/11 04:31:52;;;;;;;6.30;3.05;;;;;;;4.18;89.95;98644.51;1791032;79;21119;-58
2022/10/11 04:34:19;;;;;;;3.58;2.52;;;;;;;4.20;89.91;98649.05;1785857;79;20967;-58
2022/10/11 04:36:46;;;;;;;6.25;2.50;;;;;;;4.19;89.88;98639.50;1791636;79;20970;-58
2022/10/11 04:39:13;;;;;;;3.98;2.60;;;;;;;4.19;89.86;98639.50;1791365;79;21022;-58
2022/10/11 04:41:39;;;;;;;6.55;2.85;;;;;;;4.21;89.82;98640.08;1794225;79;21708;-58
2022/10/11 04:44:06;;;;;;;4.53;2.60;;;;;;;4.21;89.80;98640.88;1782738;79;21245;-58
2022/10/11 04:46:32;;;;;;;9.40;2.80;;;;;;;4.21;89.66;98640.08;1785504;79;21495;-58
2022/10/11 04:48:59;;;;;;;4.70;2.50;;;;;;;4.22;89.74;98640.34;1778096;79;20864;-59
2022/10/11 04:51:27;;;;;;;5.30;2.70;;;;;;;4.22;89.74;98652.27;1807687;79;21007;-58
2022/10/11 04:53:54;;;;;;;3.80;2.45;;;;;;;4.23;89.72;98649.92;1802489;79;20873;-58
2022/10/11 04:56:20;;;;;;;5.85;2.72;;;;;;;4.27;89.82;98655.03;1789864;79;22065;-58
2022/10/11 04:58:48;;;;;;;4.33;3.10;;;;;;;4.28;89.69;98651.36;1779140;79;20928;-58
2022/10/11 05:01:15;;;;;;;8.10;3.25;;;;;;;4.30;89.65;98657.23;1788918;79;20876;-59
2022/10/11 05:03:43;;;;;;;5.03;2.98;;;;;;;4.31;89.63;98653.55;1787995;79;21113;-58
2022/10/11 05:06:10;;;;;;;8.20;2.80;;;;;;;4.33;89.54;98659.42;1788899;79;20979;-58
2022/10/11 05:08:37;;;;;;;6.55;2.65;;;;;;;4.34;89.49;98655.71;1795336;79;21736;-58
2022/10/11 05:11:10;;;;;;;6.62;3.42;;;;;;;4.37;89.50;98653.93;1791944;78;21110;-58
2022/10/11 05:13:38;;;;;;;16.42;9.25;;;;;;;4.41;89.55;98654.55;1758088;79;20913;-58
2022/10/11 05:16:05;;;;;;;16.85;10.18;;;;;;;4.47;89.48;98651.48;1779159;79;21404;-59
2022/10/11 05:18:32;;;;;;;53.92;27.00;;;;;;;4.54;89.32;98650.84;1777191;80;20952;-58
2022/10/11 05:21:18;;;;;;;40.85;25.52;;;;;;;4.58;89.16;98646.66;1778691;79;21075;-58
2022/10/11 05:23:45;;;;;;;68.20;49.75;;;;;;;4.60;89.06;98648.55;1776225;79;21046;-60
2022/10/11 05:26:14;;;;;;;21.50;17.70;;;;;;;4.66;88.96;98646.30;1773110;80;20926;-61
2022/10/11 05:28:41;;;;;;;27.52;19.75;;;;;;;4.72;88.82;98654.63;1772278;79;21072;-61
2022/10/11 05:31:09;;;;;;;9.80;5.87;;;;;;;4.78;88.78;98649.72;1771098;79;21012;-58
2022/10/11 05:33:36;;;;;;;8.18;5.87;;;;;;;4.84;88.70;98651.41;1775588;79;21232;-60
2022/10/11 05:36:04;;;;;;;11.93;7.60;;;;;;;4.90;88.64;98655.76;1781810;79;21412;-60
2022/10/11 05:38:31;;;;;;;14.15;7.40;;;;;;;4.96;88.46;98653.50;1780013;79;20857;-61
2022/10/11 05:41:03;;;;;;;14.87;6.78;;;;;;;5.02;88.33;98656.52;1781001;79;20923;-60
2022/10/11 05:43:30;;;;;;;14.20;7.45;;;;;;;5.08;88.14;98657.42;1781022;80;20979;-60
2022/10/11 05:45:58;;;;;;;15.85;8.03;;;;;;;5.14;87.99;98659.92;1748547;79;21190;-60
2022/10/11 05:48:25;;;;;;;18.35;8.80;;;;;;;5.22;87.85;98658.73;1781439;79;21483;-60
2022/10/11 05:51:01;;;;;;;13.25;6.90;;;;;;;5.32;87.80;98655.72;1755839;79;21012;-62
2022/10/11 05:53:29;;;;;;;19.42;9.50;;;;;;;5.46;87.58;98652.24;1758120;79;21119;-61
2022/10/11 05:55:56;;;;;;;31.42;13.28;;;;;;;5.56;87.27;98650.28;1768637;79;20901;-60
2022/10/11 05:58:24;;;;;;;18.87;10.03;;;;;;;5.66;87.07;98646.42;1782933;79;21248;-59
2022/10/11 06:00:51;;;;;;;17.70;8.95;;;;;;;5.77;86.91;98648.99;1747652;81;21020;-60
2022/10/11 06:03:19;;;;;;;12.07;6.45;;;;;;;5.89;86.52;98644.94;1751899;81;21027;-61
2022/10/11 06:05:47;;;;;;;16.32;6.65;;;;;;;6.01;86.24;98647.79;1741323;80;20943;-61
2022/10/11 06:08:14;;;;;;;13.38;4.87;;;;;;;6.12;85.73;98646.88;1789712;79;20923;-61
2022/10/11 06:10:43;;;;;;;6.60;3.40;;;;;;;6.24;85.40;98641.47;1789901;79;20987;-60
2022/10/11 06:13:10;;;;;;;9.45;3.70;;;;;;;6.38;85.03;98651.21;1795781;79;20952;-60
2022/10/11 06:15:37;;;;;;;5.65;3.02;;;;;;;6.53;84.78;98649.53;1797133;79;20884;-60
2022/10/11 06:18:06;;;;;;;6.47;3.10;;;;;;;6.68;83.74;98651.05;1786695;79;20900;-62
2022/10/11 06:20:33;;;;;;;5.60;3.00;;;;;;;6.82;83.26;98649.61;1777953;79;21385;-61
2022/10/11 06:23:04;;;;;;;5.60;2.40;;;;;;;6.94;82.23;98648.14;1778841;79;21063;-59
2022/10/11 06:25:31;;;;;;;4.80;2.40;;;;;;;7.07;81.98;98656.23;1761697;80;21062;-60
2022/10/11 06:27:58;;;;;;;6.87;2.47;;;;;;;7.18;81.06;98652.64;1765465;80;20975;-60
2022/10/11 06:30:24;;;;;;;7.55;2.60;;;;;;;7.31;81.16;98651.69;1776003;80;20968;-60
2022/10/11 06:32:51;;;;;;;3.65;2.25;;;;;;;7.44;80.54;98651.81;1764840;80;21443;-60
2022/10/11 06:35:18;;;;;;;5.35;2.42;;;;;;;7.54;79.75;98653.20;1778771;80;21063;-59
2022/10/11 06:37:46;;;;;;;3.98;2.40;;;;;;;7.65;78.87;98652.25;1765508;79;20911;-59
2022/10/11 06:40:13;;;;;;;4.12;2.40;;;;;;;7.76;78.73;98652.59;1729215;82;20959;-60
2022/10/11 06:42:39;;;;;;;4.20;2.60;;;;;;;7.87;77.67;98646.27;1719184;81;21121;-61
2022/10/11 06:45:07;;;;;;;4.50;2.70;;;;;;;7.98;77.64;98643.95;1712341;82;21087;-60
2022/10/11 06:47:34;;;;;;;6.12;3.42;;;;;;;8.10;77.61;98648.53;1749952;81;21519;-60
2022/10/11 06:50:02;;;;;;;6.92;2.98;;;;;;;8.25;77.18;98646.48;1736710;82;22129;-61
2022/10/11 06:52:29;;;;;;;8.83;4.12;;;;;;;8.40;76.55;98651.14;1742892;81;20971;-60
2022/10/11 06:55:00;;;;;;;7.75;4.22;;;;;;;8.55;76.28;98646.66;1799538;78;21174;-61
2022/10/11 06:57:28;;;;;;;8.00;4.00;;;;;;;8.70;75.04;98639.23;1792991;79;21020;-60
2022/10/11 06:59:54;;;;;;;6.47;2.80;;;;;;;8.85;74.35;98641.97;1794704;79;21193;-60
2022/10/11 07:02:21;;;;;;;4.30;2.83;;;;;;;8.99;73.20;98643.07;1782249;79;20877;-60
2022/10/11 07:04:48;;;;;;;3.15;2.20;;;;;;;9.13;73.39;98641.50;1775876;78;20889;-59
2022/10/11 07:07:15;;;;;;;6.35;1.98;;;;;;;9.28;72.46;98638.05;1786975;78;20927;-58
2022/10/11 07:09:43;;;;;;;3.87;2.42;;;;;;;9.40;72.11;98632.69;1753672;79;21542;-59
2022/10/11 07:12:16;;;;;;;4.00;2.62;;;;;;;9.52;71.67;98635.91;1780532;79;21059;-59
2022/10/11 07:14:43;;;;;;;3.35;2.30;;;;;;;9.62;70.32;98634.58;1758934;80;21129;-59
2022/10/11 07:17:09;;;;;;;9.00;2.58;;;;;;;9.73;69.76;98630.56;1765320;79;21027;-60
2022/10/11 07:19:36;;;;;;;5.12;2.87;;;;;;;9.81;69.55;98639.37;1783230;78;21058;-59
2022/10/11 07:22:03;;;;;;;4.33;2.47;;;;;;;9.90;69.53;98643.09;1777924;80;21025;-59
2022/10/11 07:24:30;;;;;;;5.97;2.80;;;;;;;10.00;69.41;98643.09;1793823;79;21109;-59
2022/10/11 07:26:56;;;;;;;5.03;2.40;;;;;;;10.12;69.23;98643.64;1801012;79;21191;-60
2022/10/11 07:29:24;;;;;;;3.92;2.60;;;;;;;10.23;69.14;98638.52;1795028;79;20963;-59
2022/10/11 07:31:51;;;;;;;7.08;3.08;;;;;;;10.35;67.95;98635.00;1787328;79;21050;-60
2022/10/11 07:34:21;;;;;;;12.25;2.80;;;;;;;10.43;67.51;98628.28;1798239;79;21036;-60
2022/10/11 07:36:48;;;;;;;4.42;2.25;;;;;;;10.52;67.64;98626.11;1789122;79;21109;-61
2022/10/11 07:39:15;;;;;;;5.40;2.20;;;;;;;10.63;67.49;98623.64;1782754;79;21554;-60
2022/10/11 07:41:43;;;;;;;7.03;2.05;;;;;;;10.74;66.36;98619.83;1752571;81;20921;-60
2022/10/11 07:44:10;;;;;;;3.77;2.37;;;;;;;10.81;66.18;98620.33;1743408;81;21114;-59
2022/10/11 07:46:37;;;;;;;3.17;1.92;;;;;;;10.92;66.17;98620.55;1751989;81;21019;-59
2022/10/11 07:49:05;;;;;;;3.17;1.92;;;;;;;11.06;66.09;98622.60;1770375;79;21027;-59
2022/10/11 07:51:31;;;;;;;4.90;2.17;;;;;;;11.18;65.61;98613.15;1776734;79;21593;-58
2022/10/11 07:53:59;;;;;;;3.75;2.10;;;;;;;11.31;64.43;98615.72;1750675;80;21018;-58
2022/10/11 07:56:27;;;;;;;6.75;2.77;;;;;;;11.41;64.67;98618.33;1773987;80;20947;-58
2022/10/11 07:58:58;;;;;;;3.45;2.17;;;;;;;11.51;63.13;98620.94;1772746;79;21070;-58
2022/10/11 08:01:25;;;;;;;5.45;2.40;;;;;;;11.57;63.27;98612.56;1784885;79;21130;-58
2022/10/11 08:03:52;;;;;;;7.17;2.37;;;;;;;11.67;63.04;98611.68;1784714;79;20928;-59
2022/10/11 08:06:21;;;;;;;6.08;2.52;;;;;;;11.76;62.45;98605.98;1800053;79;20912;-59
2022/10/11 08:08:48;;;;;;;3.47;2.12;;;;;;;11.85;62.70;98616.36;1793834;79;20944;-59
2022/10/11 08:11:25;;;;;;;6.62;2.33;;;;;;;11.98;62.90;98615.72;1770759;79;21058;-59
2022/10/11 08:13:53;;;;;;;4.83;2.50;;;;;;;12.12;62.29;98613.95;1761791;79;21106;-62
2022/10/11 08:16:21;;;;;;;8.25;2.60;;;;;;;12.22;61.68;98611.14;1759293;80;21532;-58
2022/10/11 08:18:47;;;;;;;5.12;2.70;;;;;;;12.32;61.36;98606.20;1745759;79;20937;-58
2022/10/11 08:21:17;;;;;;;5.55;3.30;;;;;;;12.40;60.77;98608.80;1764794;79;21111;-58
2022/10/11 08:23:47;;;;;;;4.20;2.98;;;;;;;12.46;60.25;98611.70;1765039;80;20925;-59
2022/10/11 08:26:17;;;;;;;5.45;2.98;;;;;;;12.49;60.52;98615.14;1758704;80;21401;-59
2022/10/11 08:28:46;;;;;;;8.23;2.90;;;;;;;12.57;60.80;98609.14;1774926;80;21064;-58
2022/10/11 08:31:16;;;;;;;9.33;2.55;;;;;;;12.68;60.68;98610.60;1758428;80;21476;-61
2022/10/11 08:33:47;;;;;;;2.95;2.15;;;;;;;12.78;58.83;98613.16;1753785;79;21134;-59
2022/10/11 08:36:20;;;;;;;5.28;2.72;;;;;;;12.81;58.71;98612.59;1762152;80;21543;-58
2022/10/11 08:38:49;;;;;;;3.98;2.45;;;;;;;12.86;58.77;98608.47;1759804;79;21417;-59
2022/10/11 08:41:24;;;;;;;10.25;2.60;;;;;;;12.92;58.29;98608.67;1787090;78;20939;-58
2022/10/11 08:44:05;;;;;;;5.40;2.60;;;;;;;12.96;58.42;98607.80;1792343;79;21048;-58
2022/10/11 08:46:37;;;;;;;4.85;2.40;;;;;;;13.00;57.95;98602.66;1805348;79;21090;-58
2022/10/11 08:49:08;;;;;;;5.62;2.83;;;;;;;13.08;58.41;98612.77;1804118;78;21055;-60
2022/10/11 08:51:46;;;;;;;6.05;2.65;;;;;;;13.16;58.24;98605.41;1784384;79;21210;-60
2022/10/11 08:54:24;;;;;;;7.12;2.72;;;;;;;13.23;58.28;98600.45;1791082;79;20960;-57
2022/10/11 08:56:54;;;;;;;7.12;2.72;;;;;;;13.33;58.44;98605.66;1786838;79;22137;-56
2022/10/11 08:59:43;;;;;;;3.72;2.45;;;;;;;13.43;58.21;98598.77;1746290;81;21086;-59
2022/10/11 09:02:56;;;;;;;5.85;2.65;;;;;;;13.53;57.93;98600.50;1755802;81;21135;-61
2022/10/11 09:05:39;;;;;;;4.08;2.50;;;;;;;13.64;57.29;98596.54;1785213;79;21124;-58
2022/10/11 09:08:33;;;;;;;8.83;2.58;;;;;;;13.75;57.09;98600.68;1759647;80;20893;-57
2022/10/11 09:11:21;;;;;;;5.42;2.50;;;;;;;13.82;56.77;98601.09;1713458;83;21483;-59
2022/10/11 09:14:24;;;;;;;5.92;2.90;;;;;;;13.89;56.53;98600.70;1733324;81;37943;-58
2022/10/11 09:17:04;;;;;;;7.67;2.90;;;;;;;13.99;56.87;98603.22;1726980;82;21267;-60
2022/10/11 09:19:51;;;;;;;5.78;2.67;;;;;;;14.12;55.68;98597.03;1730488;80;21193;-59
2022/10/11 09:23:02;;;;;;;7.33;2.80;;;;;;;14.18;55.67;98595.83;1787751;79;21419;-58
2022/10/11 09:25:45;;;;;;;5.03;3.12;;;;;;;14.27;55.24;98590.80;1790995;79;21077;-59
2022/10/11 09:28:29;;;;;;;5.83;3.12;;;;;;;14.39;55.58;98588.97;1791273;78;21524;-59
2022/10/11 09:31:01;;;;;;;4.70;2.85;;;;;;;14.52;55.08;98589.53;1765590;79;21115;-57
2022/10/11 09:33:51;;;;;;;9.15;2.92;;;;;;;14.54;55.18;98599.45;1764976;80;21111;-58
2022/10/11 09:36:31;;;;;;;5.05;3.12;;;;;;;14.62;55.60;98595.27;1709199;82;20984;-61
2022/10/11 09:39:36;;;;;;;4.80;3.00;;;;;;;14.80;55.78;98596.48;1776066;79;20891;-59
2022/10/11 09:42:10;;;;;;;7.17;3.08;;;;;;;14.95;54.72;98591.31;1760871;79;21093;-57
2022/10/11 09:44:46;;;;;;;10.32;3.20;;;;;;;15.06;54.21;98596.17;1786957;79;21089;-57
2022/10/11 09:47:25;;;;;;;9.05;3.55;;;;;;;15.11;54.59;98589.86;1776265;79;21703;-58
2022/10/11 09:53:00;;;;;;;9.10;3.50;;;;;;;15.16;54.91;98584.89;1774980;79;21087;-59
2022/10/11 09:55:40;;;;;;;5.35;3.45;;;;;;;14.97;55.07;98588.55;1781844;79;21078;-58
2022/10/11 09:58:34;;;;;;;7.90;3.02;;;;;;;14.73;55.51;98594.75;1783788;79;21091;-57
2022/10/11 10:01:10;;;;;;;8.38;3.30;;;;;;;14.59;56.62;98585.08;1779114;79;21086;-57
2022/10/11 10:03:42;;;;;;;5.60;2.85;;;;;;;14.66;56.77;98586.81;1787438;79;21107;-58
2022/10/11 10:06:25;;;;;;;4.67;3.10;;;;;;;14.79;57.30;98587.36;1786343;79;21016;-57
2022/10/11 10:08:58;;;;;;;5.37;3.40;;;;;;;15.00;57.67;98585.80;1780254;79;21033;-59
2022/10/11 10:11:29;;;;;;;4.65;3.05;;;;;;;15.20;57.00;98584.52;1735624;80;21037;-58
2022/10/11 10:13:59;;;;;;;7.00;3.77;;;;;;;15.33;56.26;98583.69;1716888;80;21120;-58
2022/10/11 10:16:34;;;;;;;5.95;3.42;;;;;;;15.44;56.50;98585.03;1768843;80;21114;-58
2022/10/11 10:19:07;;;;;;;7.17;3.58;;;;;;;15.56;56.51;98579.91;1754696;80;20985;-59
2022/10/11 10:21:44;;;;;;;6.47;3.83;;;;;;;15.68;56.35;98582.84;1771726;80;21097;-60
2022/10/11 10:24:36;;;;;;;9.80;4.15;;;;;;;15.80;56.23;98574.97;1772258;80;21470;-59
2022/10/11 10:27:27;;;;;;;8.00;4.08;;;;;;;15.92;56.08;98581.92;1748118;80;21179;-59
2022/10/11 10:30:13;;;;;;;5.50;4.00;;;;;;;16.04;55.96;98591.59;1768685;80;20949;-60
2022/10/11 10:32:59;;;;;;;10.00;4.05;;;;;;;16.10;55.01;98579.56;1777214;80;25292;-58
2022/10/11 10:35:44;;;;;;;10.08;4.42;;;;;;;16.07;54.65;98562.61;1756709;80;21121;-58
2022/10/11 10:38:30;;;;;;;8.80;4.35;;;;;;;16.10;55.16;98568.75;1743862;80;20966;-56
2022/10/11 10:41:03;;;;;;;6.75;4.15;;;;;;;16.15;54.07;98563.22;1764227;80;21693;-59
2022/10/11 10:43:37;;;;;;;7.35;4.00;;;;;;;16.09;54.24;98563.09;1750271;80;21038;-58
2022/10/11 10:46:56;;;;;;;8.03;4.07;;;;;;;16.08;54.49;98566.92;1741000;80;21734;-60
2022/10/11 10:49:44;;;;;;;7.67;4.10;;;;;;;16.11;54.39;98564.92;1751448;80;21056;-58
2022/10/11 10:52:51;;;;;;;8.70;3.80;;;;;;;16.11;54.92;98560.87;1749888;80;21140;-59
2022/10/11 10:55:27;;;;;;;8.10;3.90;;;;;;;16.30;55.10;98563.32;1739508;80;21115;-56
2022/10/11 10:58:21;;;;;;;6.40;3.87;;;;;;;16.46;54.66;98556.95;1758841;79;21146;-58
2022/10/11 11:00:59;;;;;;;6.72;4.47;;;;;;;16.60;53.49;98560.34;1766133;80;20967;-57
2022/10/11 11:03:54;;;;;;;9.63;4.37;;;;;;;16.67;52.53;98562.03;1757391;79;21002;-58
2022/10/11 11:06:49;;;;;;;10.95;3.83;;;;;;;16.63;53.22;98555.67;1757023;80;21537;-59
2022/10/11 11:09:36;;;;;;;10.43;4.08;;;;;;;16.80;53.13;98558.38;1754044;80;21298;-59
2022/10/11 11:12:46;;;;;;;8.13;4.15;;;;;;;17.00;52.86;98556.42;1755906;79;20962;-57
2022/10/11 11:15:38;;;;;;;8.40;4.45;;;;;;;17.12;53.45;98555.23;1770130;79;20999;-59
2022/10/11 11:18:30;;;;;;;7.35;4.90;;;;;;;17.12;52.93;98556.58;1754835;79;20988;-59
2022/10/11 11:21:29;;;;;;;9.73;4.53;;;;;;;17.14;52.85;98553.55;1761010;80;21443;-57
2022/10/11 11:24:32;;;;;;;6.42;4.30;;;;;;;17.24;52.25;98555.36;1751632;80;21293;-57
2022/10/11 11:27:41;;;;;;;10.25;4.50;;;;;;;17.30;51.69;98551.94;1664745;81;21039;-57
2022/10/11 11:30:29;;;;;;;7.62;4.28;;;;;;;17.39;51.49;98553.52;1741515;79;21062;-58
2022/10/11 11:33:20;;;;;;;9.38;4.60;;;;;;;17.49;51.49;98545.07;1754745;79;20966;-57
2022/10/11 11:35:53;;;;;;;6.17;4.35;;;;;;;17.54;51.47;98540.88;1751890;80;21242;-57
2022/10/11 11:38:46;;;;;;;7.20;4.40;;;;;;;17.52;49.62;98547.14;1718753;81;21102;-61
2022/10/11 11:41:32;;;;;;;6.65;4.00;;;;;;;17.30;49.91;98545.97;1744093;81;21003;-57
2022/10/11 11:44:13;;;;;;;6.58;4.60;;;;;;;17.00;50.17;98548.30;1743325;81;21026;-56
2022/10/11 11:47:01;;;;;;;6.03;4.20;;;;;;;16.75;50.61;98553.11;1752104;79;20943;-57
2022/10/11 11:49:48;;;;;;;5.90;3.87;;;;;;;16.71;51.25;98548.11;1760304;80;21487;-59
2022/10/11 11:52:40;;;;;;;7.20;4.12;;;;;;;16.74;51.82;98551.54;1743329;80;20907;-58
2022/10/11 11:55:33;;;;;;;7.35;3.47;;;;;;;16.76;52.42;98552.81;1767684;79;21479;-57
2022/10/11 11:58:37;;;;;;;9.23;4.20;;;;;;;16.89;51.97;98542.94;1766762;79;20971;-58
2022/10/11 12:01:25;;;;;;;7.47;4.20;;;;;;;17.10;50.55;98545.25;1768942;80;21109;-58
2022/10/11 12:04:07;;;;;;;6.80;3.90;;;;;;;17.30;49.97;98543.81;1765024;79;20995;-58
2022/10/11 12:06:40;;;;;;;7.70;3.80;;;;;;;17.22;50.98;98541.93;1744321;81;21058;-58
2022/10/11 12:09:21;;;;;;;8.70;4.12;;;;;;;17.10;51.35;98541.19;1739345;82;20998;-58
2022/10/11 12:12:05;;;;;;;14.20;3.87;;;;;;;16.98;51.50;98541.83;1744626;82;21042;-59